TAF Text Data
IDs:
Format:
Raw Decoded Include METAR

Data at: 0231 UTC 29 May 2022

KFTY 282338Z 2900/2924 33005KT P6SM FEW050
  FM290200 VRB02KT P6SM FEW250
  FM291600 14006KT P6SM FEW050